createdAt,value
2023-05-19T00:06:42.247Z,100867
2023-05-19T00:46:46.812Z,100851
2023-05-19T00:56:47.617Z,100846
2023-05-19T01:06:48.735Z,100850
2023-05-19T01:16:49.695Z,100840
2023-05-19T01:26:50.684Z,100842
2023-05-19T01:36:51.720Z,100834
2023-05-19T01:46:53.205Z,100836
2023-05-19T01:56:53.916Z,100839
2023-05-19T02:06:54.802Z,100832
2023-05-19T02:16:55.940Z,100834
2023-05-19T02:26:56.862Z,100830
2023-05-19T02:36:57.860Z,100839
2023-05-19T02:46:59.143Z,100837
2023-05-19T02:56:59.878Z,100839
2023-05-19T03:07:00.944Z,100835
2023-05-19T03:17:01.991Z,100836
2023-05-19T03:27:02.912Z,100841
2023-05-19T03:47:05.028Z,100839
2023-05-19T03:57:06.165Z,100845
2023-05-19T04:07:07.042Z,100843
2023-05-19T04:17:08.222Z,100854
2023-05-19T04:27:09.148Z,100859
2023-05-19T04:37:10.230Z,100868
2023-05-19T04:47:11.560Z,100881
2023-05-19T04:57:12.253Z,100883
2023-05-19T05:07:13.601Z,100886
2023-05-19T05:17:14.496Z,100889
2023-05-19T05:27:15.708Z,100901
2023-05-19T05:37:16.769Z,100909
2023-05-19T05:47:18.400Z,100903
2023-05-19T05:57:19.277Z,100904
2023-05-19T06:07:20.804Z,100907
2023-05-19T06:17:22.001Z,100909
2023-05-19T06:27:23.514Z,100916
2023-05-19T06:37:25.010Z,100924
2023-05-19T06:47:26.633Z,100935
2023-05-19T06:57:27.888Z,100947
2023-05-19T07:07:29.493Z,100952
2023-05-19T07:17:31.215Z,100947
2023-05-19T07:27:32.641Z,100952
2023-05-19T07:37:34.256Z,100942
2023-05-19T07:47:36.132Z,100935
2023-05-19T07:57:37.987Z,100925
2023-05-19T08:07:39.984Z,100925
2023-05-19T08:17:41.820Z,100918
2023-05-19T08:27:43.628Z,100911
2023-05-19T08:37:45.371Z,100910
2023-05-19T08:47:47.302Z,100916
2023-05-19T09:07:50.322Z,100919
2023-05-19T09:17:52.126Z,100909
2023-05-19T09:27:53.581Z,100911
2023-05-19T09:37:55.499Z,100907
2023-05-19T09:47:57.048Z,100909
2023-05-19T09:57:58.446Z,100896
2023-05-19T10:08:00.150Z,100886
2023-05-19T10:18:01.869Z,100877
2023-05-19T10:28:03.469Z,100864
2023-05-19T10:38:05.181Z,100856
2023-05-19T10:48:06.932Z,100848
2023-05-19T10:58:08.443Z,100845
2023-05-19T11:08:10.301Z,100838
2023-05-19T11:18:12.166Z,100823
2023-05-19T11:28:13.587Z,100825
2023-05-19T11:38:15.403Z,100820
2023-05-19T11:48:17.470Z,100815
2023-05-19T11:58:18.863Z,100811
2023-05-19T12:08:20.376Z,100803
2023-05-19T12:18:22.130Z,100804
2023-05-19T12:28:23.900Z,100791
2023-05-19T12:38:25.630Z,100782
2023-05-19T12:48:27.363Z,100764
2023-05-19T12:58:29.240Z,100755
2023-05-19T13:08:30.803Z,100748
2023-05-19T13:18:32.673Z,100742
2023-05-19T13:28:34.329Z,100734
2023-05-19T13:38:36.282Z,100719
2023-05-19T13:48:38.111Z,100703
2023-05-19T13:58:39.900Z,100703
2023-05-19T14:08:41.745Z,100701
2023-05-19T14:18:43.286Z,100700
2023-05-19T14:28:45.087Z,100694
2023-05-19T14:48:48.694Z,100685
2023-05-19T14:58:50.537Z,100683
2023-05-19T15:08:52.260Z,100677
2023-05-19T15:18:54.188Z,100667
2023-05-19T15:28:55.846Z,100674
2023-05-19T15:38:57.621Z,100667
2023-05-19T16:09:03.778Z,100660
2023-05-19T16:19:05.430Z,100664
2023-05-19T16:29:07.111Z,100660
2023-05-19T16:39:09.267Z,100669
2023-05-19T16:49:11.068Z,100668
2023-05-19T16:59:12.748Z,100666
2023-05-19T17:09:15.049Z,100663
2023-05-19T17:19:16.496Z,100664
2023-05-19T17:29:18.259Z,100681
2023-05-19T17:39:21.302Z,100679
2023-05-19T17:49:21.769Z,100686
2023-05-19T17:59:24.006Z,100688
2023-05-19T18:09:27.860Z,100694
2023-05-19T18:19:27.219Z,100687
2023-05-19T18:29:28.732Z,100692
2023-05-19T18:39:30.495Z,100704
2023-05-19T18:49:32.320Z,100719
2023-05-19T18:59:33.844Z,100719
2023-05-19T19:09:35.363Z,100713
2023-05-19T19:19:36.681Z,100718
2023-05-19T19:29:38.041Z,100735
2023-05-19T19:39:39.548Z,100747
2023-05-19T19:49:41.062Z,100746
2023-05-19T20:09:43.869Z,100766
2023-05-19T20:19:45.288Z,100757
2023-05-19T20:29:46.635Z,100757
2023-05-19T20:39:48.035Z,100757
2023-05-19T20:49:49.505Z,100756
2023-05-19T20:59:50.799Z,100748
2023-05-19T21:09:52.173Z,100751
2023-05-19T21:19:53.542Z,100749
2023-05-19T21:29:55.087Z,100755
2023-05-19T21:39:56.294Z,100749
2023-05-19T21:49:57.585Z,100749
2023-05-19T21:59:58.910Z,100755
2023-05-19T22:10:00.280Z,100750
2023-05-19T22:20:01.511Z,100739
2023-05-19T22:30:02.869Z,100719
2023-05-19T22:40:04.327Z,100708
2023-05-19T22:50:05.598Z,100705
2023-05-19T23:00:06.792Z,100695
2023-05-19T23:10:07.995Z,100688
2023-05-19T23:20:09.192Z,100689
2023-05-19T23:30:10.359Z,100687
2023-05-19T23:40:13.081Z,100686
2023-05-19T23:50:14.309Z,100678
